createdAt,value
2019-03-17T00:02:11.275Z,73.25
2019-03-17T00:04:42.722Z,76.02
2019-03-17T00:07:13.864Z,75.67
2019-03-17T00:09:45.724Z,70.17
2019-03-17T00:12:16.664Z,55.50
2019-03-17T00:14:47.645Z,58.50
2019-03-17T00:17:18.227Z,57.62
2019-03-17T00:19:48.547Z,61.40
2019-03-17T00:22:19.385Z,52.88
2019-03-17T00:24:50.566Z,52.43
2019-03-17T00:27:20.952Z,60.48
2019-03-17T00:29:51.685Z,57.15
2019-03-17T00:32:23.994Z,54.03
2019-03-17T00:34:54.482Z,49.65
2019-03-17T00:37:25.007Z,45.25
2019-03-17T00:39:55.432Z,47.48
2019-03-17T00:42:26.805Z,48.52
2019-03-17T00:44:57.716Z,43.58
2019-03-17T00:47:28.154Z,39.78
2019-03-17T00:50:00.719Z,45.65
2019-03-17T00:52:31.205Z,43.42
2019-03-17T00:55:02.502Z,49.20
2019-03-17T00:57:33.363Z,50.75
2019-03-17T01:00:06.031Z,47.65
2019-03-17T01:02:36.886Z,50.15
2019-03-17T01:05:08.186Z,64.62
2019-03-17T01:07:39.049Z,70.12
2019-03-17T01:10:10.060Z,80.72
2019-03-17T01:12:44.946Z,85.03
2019-03-17T01:15:15.115Z,87.97
2019-03-17T01:17:48.202Z,81.75
2019-03-17T01:20:18.553Z,63.43
2019-03-17T01:22:49.149Z,90.90
2019-03-17T01:25:19.571Z,91.53
2019-03-17T01:27:50.203Z,89.10
2019-03-17T01:30:21.696Z,93.10
2019-03-17T01:32:52.286Z,89.70
2019-03-17T01:35:23.014Z,90.60
2019-03-17T01:37:53.643Z,85.15
2019-03-17T01:40:24.175Z,86.50
2019-03-17T01:42:54.803Z,81.00
2019-03-17T01:45:26.084Z,93.70
2019-03-17T01:47:56.517Z,91.20
2019-03-17T01:50:27.209Z,88.12
2019-03-17T01:52:57.836Z,89.85
2019-03-17T01:55:28.670Z,99.47
2019-03-17T01:57:59.197Z,94.97
2019-03-17T02:00:30.544Z,98.42
2019-03-17T02:03:00.649Z,97.20
2019-03-17T02:05:31.192Z,92.70
2019-03-17T02:08:01.616Z,84.45
2019-03-17T02:10:32.657Z,88.85
2019-03-17T02:13:03.602Z,77.50
2019-03-17T02:15:33.710Z,81.50
2019-03-17T02:18:04.239Z,79.07
2019-03-17T02:20:35.110Z,72.12
2019-03-17T02:23:06.055Z,72.25
2019-03-17T02:25:36.537Z,79.85
2019-03-17T02:28:07.054Z,85.57
2019-03-17T02:30:37.554Z,79.35
2019-03-17T02:33:08.227Z,71.35
2019-03-17T02:35:40.215Z,81.25
2019-03-17T02:38:10.920Z,78.55
2019-03-17T02:40:41.448Z,86.40
2019-03-17T02:43:12.177Z,69.80
2019-03-17T02:45:43.012Z,64.45
2019-03-17T02:48:13.134Z,71.72
2019-03-17T02:50:44.478Z,61.75
2019-03-17T02:53:14.798Z,59.00
2019-03-17T02:55:45.427Z,54.88
2019-03-17T02:58:16.578Z,51.63
2019-03-17T03:00:47.107Z,51.23
2019-03-17T03:03:18.448Z,49.53
2019-03-17T03:05:55.355Z,50.25
2019-03-17T03:08:23.181Z,47.83
2019-03-17T03:10:55.867Z,46.05
2019-03-17T03:13:26.293Z,40.67
2019-03-17T03:15:58.565Z,48.55
2019-03-17T03:18:28.993Z,42.55
2019-03-17T03:21:00.973Z,40.85
2019-03-17T03:23:31.470Z,36.83
2019-03-17T03:26:02.692Z,48.95
2019-03-17T03:28:33.146Z,52.03
2019-03-17T03:31:04.500Z,53.98
2019-03-17T03:33:34.807Z,61.92
2019-03-17T03:36:11.229Z,63.02
2019-03-17T03:38:40.273Z,63.98
2019-03-17T03:41:10.558Z,62.53
2019-03-17T03:43:41.222Z,48.13
2019-03-17T03:46:12.179Z,33.73
2019-03-17T03:48:44.000Z,43.40
2019-03-17T03:51:15.786Z,56.23
2019-03-17T03:53:46.688Z,56.42
2019-03-17T03:56:17.749Z,72.15
2019-03-17T03:58:50.026Z,77.62
2019-03-17T04:01:20.242Z,63.28
2019-03-17T04:03:50.894Z,62.50
2019-03-17T04:06:26.892Z,49.55
2019-03-17T04:08:53.358Z,49.38
2019-03-17T04:11:24.134Z,38.60
2019-03-17T04:13:54.830Z,43.65
2019-03-17T04:16:25.467Z,59.98
2019-03-17T04:18:55.996Z,65.37
2019-03-17T04:21:28.235Z,66.40
2019-03-17T04:23:58.634Z,72.42
2019-03-17T04:26:30.025Z,67.17
2019-03-17T04:29:00.180Z,51.48
2019-03-17T04:31:31.083Z,46.33
2019-03-17T04:34:01.706Z,36.93
2019-03-17T04:36:40.160Z,40.78
2019-03-17T04:39:06.861Z,40.65
2019-03-17T04:41:37.182Z,43.58
2019-03-17T04:44:20.005Z,62.67
2019-03-17T04:46:40.679Z,50.23
2019-03-17T04:49:11.360Z,44.33
2019-03-17T04:51:42.054Z,31.45
2019-03-17T04:54:12.791Z,32.58
2019-03-17T04:56:44.631Z,32.48
2019-03-17T04:59:15.378Z,20.52
2019-03-17T05:01:46.113Z,19.75
2019-03-17T05:04:17.584Z,19.77
2019-03-17T05:06:52.585Z,18.17
2019-03-17T05:09:21.181Z,20.12
2019-03-17T05:11:52.041Z,19.27
2019-03-17T05:14:22.850Z,18.62
2019-03-17T05:16:54.436Z,18.55
2019-03-17T05:19:25.643Z,17.27
2019-03-17T05:21:55.967Z,16.25
2019-03-17T05:24:26.911Z,15.98
2019-03-17T05:26:57.533Z,18.37
2019-03-17T05:29:28.371Z,18.90
2019-03-17T05:31:59.410Z,19.10
2019-03-17T05:34:29.785Z,16.80
2019-03-17T05:37:06.574Z,15.00
2019-03-17T05:39:33.244Z,18.42
2019-03-17T05:42:03.978Z,18.50
2019-03-17T05:44:34.492Z,21.23
2019-03-17T05:47:06.054Z,20.15
2019-03-17T05:49:37.281Z,18.10
2019-03-17T05:52:08.574Z,18.23
2019-03-17T05:54:38.971Z,18.92
2019-03-17T05:57:09.409Z,15.55
2019-03-17T05:59:40.827Z,19.98
2019-03-17T06:02:12.814Z,16.20
2019-03-17T06:04:44.358Z,14.73
2019-03-17T06:07:18.945Z,15.90
2019-03-17T06:09:48.592Z,14.70
2019-03-17T06:12:21.263Z,14.33
2019-03-17T06:14:51.792Z,17.10
2019-03-17T06:17:22.525Z,19.02
2019-03-17T06:19:53.770Z,17.00
2019-03-17T06:22:25.323Z,17.45
2019-03-17T06:24:56.769Z,16.82
2019-03-17T06:27:28.631Z,18.05
2019-03-17T06:29:58.847Z,16.40
2019-03-17T06:32:29.582Z,19.32
2019-03-17T06:35:00.361Z,19.20
2019-03-17T06:37:31.494Z,17.45
2019-03-17T06:40:02.910Z,25.90
2019-03-17T06:42:33.606Z,23.67
2019-03-17T06:45:05.494Z,25.95
2019-03-17T06:47:35.738Z,20.20
2019-03-17T06:50:13.946Z,22.45
2019-03-17T06:52:44.351Z,24.35
2019-03-17T06:55:16.683Z,19.20
2019-03-17T06:57:47.044Z,19.40
2019-03-17T07:00:17.877Z,17.42
2019-03-17T07:02:48.381Z,17.67
2019-03-17T07:05:19.138Z,17.00
2019-03-17T07:07:50.434Z,19.52
2019-03-17T07:10:22.769Z,17.27
2019-03-17T07:12:53.497Z,19.45
2019-03-17T07:15:25.155Z,21.12
2019-03-17T07:17:55.470Z,24.07
2019-03-17T07:20:26.299Z,35.58
2019-03-17T07:22:57.101Z,22.17
2019-03-17T07:25:27.663Z,21.10
2019-03-17T07:27:59.135Z,21.15
2019-03-17T07:30:29.535Z,18.62
2019-03-17T07:33:00.828Z,16.42
2019-03-17T07:35:33.642Z,19.07
2019-03-17T07:38:04.905Z,20.52
2019-03-17T07:40:35.636Z,16.95
2019-03-17T07:43:06.375Z,22.30
2019-03-17T07:45:39.362Z,16.65
2019-03-17T07:48:09.958Z,18.47
2019-03-17T07:50:40.821Z,22.07
2019-03-17T07:53:12.284Z,22.60
2019-03-17T07:55:42.594Z,19.02
2019-03-17T07:58:13.327Z,14.98
2019-03-17T08:00:44.037Z,14.95
2019-03-17T08:03:14.687Z,17.07
2019-03-17T08:05:45.627Z,18.12
2019-03-17T08:08:16.374Z,18.12
2019-03-17T08:10:47.409Z,15.98
2019-03-17T08:13:18.651Z,12.50
2019-03-17T08:15:49.364Z,12.15
2019-03-17T08:18:19.898Z,14.28
2019-03-17T08:20:50.065Z,9.78
2019-03-17T08:23:21.545Z,9.33
2019-03-17T08:25:53.712Z,10.90
2019-03-17T08:28:25.789Z,11.33
2019-03-17T08:30:56.330Z,11.35
2019-03-17T08:33:27.288Z,16.55
2019-03-17T08:35:59.027Z,18.05
2019-03-17T08:38:30.983Z,10.65
2019-03-17T08:41:02.765Z,13.78
2019-03-17T08:43:33.471Z,20.88
2019-03-17T08:46:03.681Z,13.20
2019-03-17T08:48:34.233Z,13.68
2019-03-17T08:51:04.747Z,13.95
2019-03-17T08:53:35.397Z,10.72
2019-03-17T08:56:06.641Z,12.53
2019-03-17T08:58:36.945Z,11.43
2019-03-17T09:01:08.479Z,14.13
2019-03-17T09:03:40.559Z,14.00
2019-03-17T09:06:11.292Z,11.60
2019-03-17T09:08:42.620Z,15.18
2019-03-17T09:11:15.421Z,17.82
2019-03-17T09:13:45.955Z,16.05
2019-03-17T09:16:16.588Z,17.45
2019-03-17T09:18:47.130Z,13.72
2019-03-17T09:21:19.108Z,12.90
2019-03-17T09:23:49.933Z,16.62
2019-03-17T09:26:22.273Z,17.27
2019-03-17T09:28:53.723Z,15.23
2019-03-17T09:31:23.910Z,18.67
2019-03-17T09:33:55.660Z,15.20
2019-03-17T09:36:27.247Z,13.62
2019-03-17T09:38:58.210Z,11.95
2019-03-17T09:41:28.745Z,13.38
2019-03-17T09:43:59.345Z,13.70
2019-03-17T09:46:30.489Z,17.20
2019-03-17T09:49:01.939Z,16.45
2019-03-17T09:51:32.358Z,13.70
2019-03-17T09:54:02.893Z,15.23
2019-03-17T09:56:35.313Z,15.15
2019-03-17T09:59:05.790Z,9.58
2019-03-17T10:01:36.479Z,10.20
2019-03-17T10:04:10.933Z,4.95
2019-03-17T10:06:41.356Z,6.65
2019-03-17T10:09:11.890Z,7.37
2019-03-17T10:11:42.619Z,8.30
2019-03-17T10:14:13.156Z,13.30
2019-03-17T10:16:44.085Z,10.30
2019-03-17T10:19:14.365Z,8.00
2019-03-17T10:21:45.042Z,10.82
2019-03-17T10:24:15.571Z,10.38
2019-03-17T10:26:46.202Z,10.85
2019-03-17T10:29:17.133Z,18.60
2019-03-17T10:31:48.456Z,9.20
2019-03-17T10:34:19.727Z,21.75
2019-03-17T10:36:49.946Z,17.32
2019-03-17T10:39:22.123Z,9.35
2019-03-17T10:41:54.287Z,13.43
2019-03-17T10:44:24.715Z,8.88
2019-03-17T10:46:56.205Z,9.03
2019-03-17T10:49:27.239Z,13.88
2019-03-17T10:51:58.520Z,12.23
2019-03-17T10:54:28.979Z,24.40
2019-03-17T10:56:59.902Z,7.53
2019-03-17T10:59:30.639Z,5.78
2019-03-17T11:02:01.296Z,5.08
2019-03-17T11:04:31.893Z,4.22
2019-03-17T11:07:05.497Z,5.60
2019-03-17T11:09:36.728Z,7.80
2019-03-17T11:12:08.112Z,23.73
2019-03-17T11:14:38.923Z,20.37
2019-03-17T11:17:09.664Z,9.78
2019-03-17T11:19:40.219Z,13.72
2019-03-17T11:22:12.156Z,8.60
2019-03-17T11:24:43.681Z,8.15
2019-03-17T11:27:14.019Z,5.90
2019-03-17T11:29:47.006Z,4.85
2019-03-17T11:32:17.235Z,21.35
2019-03-17T11:34:47.958Z,5.78
2019-03-17T11:37:18.486Z,4.70
2019-03-17T11:39:51.029Z,19.00
2019-03-17T11:42:22.337Z,12.05
2019-03-17T11:44:53.139Z,8.40
2019-03-17T11:47:23.670Z,18.77
2019-03-17T11:49:54.607Z,15.23
2019-03-17T11:52:27.154Z,6.12
2019-03-17T11:54:58.447Z,7.00
2019-03-17T11:57:28.643Z,7.42
2019-03-17T12:00:02.249Z,10.32
2019-03-17T12:02:32.565Z,11.40
2019-03-17T12:05:04.527Z,9.33
2019-03-17T12:07:35.669Z,9.73
2019-03-17T12:10:11.931Z,15.38
2019-03-17T12:12:43.264Z,15.13
2019-03-17T12:15:21.820Z,19.52
2019-03-17T12:17:52.321Z,11.70
2019-03-17T12:20:22.667Z,14.15
2019-03-17T12:22:53.047Z,17.73
2019-03-17T12:25:24.242Z,15.85
2019-03-17T12:27:54.853Z,17.55
2019-03-17T12:30:30.202Z,11.25
2019-03-17T12:33:00.610Z,18.05
2019-03-17T12:35:31.131Z,18.67
2019-03-17T12:38:01.878Z,10.03
2019-03-17T12:40:32.393Z,16.82
2019-03-17T12:43:03.917Z,8.58
2019-03-17T12:45:34.574Z,8.65
2019-03-17T12:48:05.416Z,9.93
2019-03-17T12:50:35.755Z,10.65
2019-03-17T12:53:08.025Z,9.90
2019-03-17T12:55:38.840Z,16.40
2019-03-17T12:58:09.490Z,10.43
2019-03-17T13:00:42.556Z,11.45
2019-03-17T13:03:14.827Z,13.40
2019-03-17T13:05:45.473Z,10.28
2019-03-17T13:08:16.989Z,14.50
2019-03-17T13:10:49.666Z,9.58
2019-03-17T13:13:19.806Z,17.17
2019-03-17T13:15:51.157Z,16.10
2019-03-17T13:18:21.782Z,13.38
2019-03-17T13:20:53.958Z,14.45
2019-03-17T13:23:26.522Z,11.00
2019-03-17T13:25:58.662Z,14.05
2019-03-17T13:28:29.731Z,14.43
2019-03-17T13:30:59.904Z,9.65
2019-03-17T13:33:32.935Z,13.00
2019-03-17T13:36:03.573Z,14.28
2019-03-17T13:38:34.085Z,13.70
2019-03-17T13:41:05.027Z,10.20
2019-03-17T13:43:35.516Z,11.65
2019-03-17T13:46:05.975Z,14.55
2019-03-17T13:48:36.965Z,18.32
2019-03-17T13:51:08.878Z,36.15
2019-03-17T13:53:40.367Z,18.20
2019-03-17T13:56:12.070Z,15.68
2019-03-17T13:58:43.313Z,15.23
2019-03-17T14:01:13.947Z,13.53
2019-03-17T14:03:46.434Z,12.80
2019-03-17T14:06:17.380Z,11.73
2019-03-17T14:08:48.956Z,19.55
2019-03-17T14:11:19.349Z,10.53
2019-03-17T14:13:49.875Z,17.32
2019-03-17T14:16:21.534Z,24.40
2019-03-17T14:18:52.165Z,24.37
2019-03-17T14:21:24.487Z,14.70
2019-03-17T14:23:54.955Z,10.23
2019-03-17T14:26:25.389Z,12.50
2019-03-17T14:28:56.005Z,13.10
2019-03-17T14:31:29.581Z,12.37
2019-03-17T14:34:00.032Z,9.15
2019-03-17T14:36:31.993Z,11.70
2019-03-17T14:39:02.930Z,13.03
2019-03-17T14:41:34.449Z,10.88
2019-03-17T14:44:04.600Z,12.20
2019-03-17T14:46:35.833Z,14.83
2019-03-17T14:49:07.192Z,12.23
2019-03-17T14:51:37.516Z,12.05
2019-03-17T14:54:08.249Z,14.05
2019-03-17T14:56:38.973Z,9.53
2019-03-17T14:59:12.393Z,11.50
2019-03-17T15:01:42.800Z,11.65
2019-03-17T15:04:13.423Z,13.13
2019-03-17T15:06:45.085Z,19.00
2019-03-17T15:09:15.906Z,26.85
2019-03-17T15:11:47.372Z,18.95
2019-03-17T15:14:17.995Z,10.08
2019-03-17T15:16:48.321Z,11.33
2019-03-17T15:19:21.098Z,11.33
2019-03-17T15:21:51.670Z,10.72
2019-03-17T15:24:24.337Z,17.52
2019-03-17T15:26:54.725Z,12.05
2019-03-17T15:29:28.026Z,13.98
2019-03-17T15:31:59.343Z,11.30
2019-03-17T15:34:30.493Z,11.22
2019-03-17T15:37:04.899Z,16.32
2019-03-17T15:39:34.640Z,10.95
2019-03-17T15:42:04.762Z,11.63
2019-03-17T15:44:35.299Z,11.03
2019-03-17T15:47:07.448Z,15.18
2019-03-17T15:49:38.390Z,14.65
2019-03-17T15:52:08.713Z,13.48
2019-03-17T15:54:39.219Z,13.15
2019-03-17T15:57:13.253Z,16.60
2019-03-17T15:59:43.790Z,32.60
2019-03-17T16:02:14.303Z,27.45
2019-03-17T16:04:45.242Z,29.52
2019-03-17T16:07:16.078Z,28.15
2019-03-17T16:09:47.334Z,26.07
2019-03-17T16:12:18.771Z,16.70
2019-03-17T16:14:50.721Z,21.65
2019-03-17T16:17:22.285Z,24.55
2019-03-17T16:19:52.505Z,18.02
2019-03-17T16:22:23.550Z,17.23
2019-03-17T16:24:57.142Z,18.35
2019-03-17T16:30:00.553Z,24.18
2019-03-17T16:32:31.684Z,18.85
2019-03-17T16:35:05.806Z,30.15
2019-03-17T16:37:37.039Z,18.12
2019-03-17T16:40:19.015Z,15.30
2019-03-17T16:42:53.803Z,17.12
2019-03-17T16:45:24.303Z,17.02
2019-03-17T16:47:55.034Z,15.10
2019-03-17T16:50:28.131Z,10.20
2019-03-17T16:53:00.476Z,15.58
2019-03-17T16:55:33.569Z,15.15
2019-03-17T16:58:04.514Z,15.85
2019-03-17T17:00:35.864Z,17.90
2019-03-17T17:03:06.343Z,16.23
2019-03-17T17:05:37.771Z,16.25
2019-03-17T17:08:08.473Z,15.32
2019-03-17T17:10:39.303Z,19.57
2019-03-17T17:13:10.138Z,16.87
2019-03-17T17:15:40.834Z,22.75
2019-03-17T17:18:11.708Z,27.93
2019-03-17T17:20:42.648Z,19.85
2019-03-17T17:23:14.060Z,18.52
2019-03-17T17:25:45.241Z,20.40
2019-03-17T17:28:15.967Z,21.23
2019-03-17T17:30:47.007Z,23.75
2019-03-17T17:33:21.021Z,48.77
2019-03-17T17:35:52.515Z,28.62
2019-03-17T17:38:23.826Z,27.52
2019-03-17T17:40:54.233Z,24.67
2019-03-17T17:43:25.572Z,24.90
2019-03-17T17:45:56.318Z,21.82
2019-03-17T17:48:27.052Z,20.45
2019-03-17T17:50:57.539Z,23.05
2019-03-17T17:53:29.854Z,17.80
2019-03-17T17:56:00.784Z,19.17
2019-03-17T17:58:31.416Z,20.65
2019-03-17T18:01:02.147Z,24.40
2019-03-17T18:03:35.134Z,18.85
2019-03-17T18:06:06.486Z,22.98
2019-03-17T18:08:36.856Z,35.70
2019-03-17T18:11:07.387Z,40.90
2019-03-17T18:13:38.370Z,43.52
2019-03-17T18:16:09.622Z,39.78
2019-03-17T18:18:40.968Z,44.30
2019-03-17T18:21:11.692Z,42.80
2019-03-17T18:23:43.459Z,32.75
2019-03-17T18:26:14.036Z,24.98
2019-03-17T18:28:44.914Z,37.25
2019-03-17T18:31:19.238Z,35.80
2019-03-17T18:33:50.064Z,35.58
2019-03-17T18:36:20.826Z,41.75
2019-03-17T18:38:51.453Z,33.18
2019-03-17T18:41:22.145Z,30.02
2019-03-17T18:43:53.417Z,31.23
2019-03-17T18:46:24.038Z,30.32
2019-03-17T18:48:56.203Z,36.90
2019-03-17T18:51:28.312Z,35.33
2019-03-17T18:53:59.001Z,37.60
2019-03-17T18:56:29.730Z,33.20
2019-03-17T18:59:00.155Z,33.50
2019-03-17T19:01:30.847Z,30.55
2019-03-17T19:04:01.623Z,30.70
2019-03-17T19:06:32.311Z,30.23
2019-03-17T19:09:03.907Z,25.82
2019-03-17T19:11:34.539Z,29.55
2019-03-17T19:14:05.473Z,38.88
2019-03-17T19:16:36.203Z,29.72
2019-03-17T19:19:06.936Z,35.33
2019-03-17T19:21:38.590Z,34.85
2019-03-17T19:24:10.348Z,35.92
2019-03-17T19:26:40.976Z,35.52
2019-03-17T19:29:11.577Z,32.30
2019-03-17T19:31:42.339Z,37.55
2019-03-17T19:34:13.029Z,31.17
2019-03-17T19:36:43.904Z,30.90
2019-03-17T19:39:16.172Z,25.70
2019-03-17T19:41:46.695Z,31.65
2019-03-17T19:44:17.701Z,22.32
2019-03-17T19:46:48.467Z,25.35
2019-03-17T19:49:19.316Z,27.95
2019-03-17T19:51:50.046Z,30.92
2019-03-17T19:54:20.876Z,57.53
2019-03-17T19:56:51.608Z,36.35
2019-03-17T19:59:22.244Z,32.95
2019-03-17T20:01:52.563Z,37.25
2019-03-17T20:04:30.344Z,27.00
2019-03-17T20:06:55.667Z,37.05
2019-03-17T20:09:26.350Z,31.35
2019-03-17T20:11:57.232Z,32.73
2019-03-17T20:14:27.955Z,31.52
2019-03-17T20:16:59.384Z,39.27
2019-03-17T20:19:30.251Z,35.17
2019-03-17T20:22:02.733Z,44.63
2019-03-17T20:24:33.456Z,30.35
2019-03-17T20:27:04.186Z,35.60
2019-03-17T20:29:37.241Z,32.93
2019-03-17T20:32:08.110Z,33.43
2019-03-17T20:34:39.151Z,35.95
2019-03-17T20:37:09.881Z,47.60
2019-03-17T20:39:40.488Z,41.28
2019-03-17T20:42:12.546Z,39.65
2019-03-17T20:44:43.204Z,34.63
2019-03-17T20:47:13.837Z,42.78
2019-03-17T20:49:46.102Z,51.30
2019-03-17T20:52:17.656Z,57.88
2019-03-17T20:54:48.128Z,50.48
2019-03-17T20:57:19.532Z,55.00
2019-03-17T20:59:50.161Z,50.43
2019-03-17T21:02:20.550Z,53.60
2019-03-17T21:04:51.828Z,51.77
2019-03-17T21:07:24.404Z,59.67
2019-03-17T21:09:54.961Z,60.00
2019-03-17T21:12:25.767Z,65.10
2019-03-17T21:14:58.051Z,67.20
2019-03-17T21:17:28.393Z,73.07
2019-03-17T21:20:00.719Z,73.60
2019-03-17T21:22:31.359Z,73.52
2019-03-17T21:25:02.083Z,77.03
2019-03-17T21:27:32.735Z,69.42
2019-03-17T21:30:03.835Z,74.82
2019-03-17T21:32:35.515Z,63.95
2019-03-17T21:35:05.837Z,65.60
2019-03-17T21:37:36.370Z,62.45
2019-03-17T21:40:10.212Z,60.25
2019-03-17T21:42:40.501Z,75.72
2019-03-17T21:45:16.164Z,77.22
2019-03-17T21:50:21.341Z,78.02
2019-03-17T21:52:51.513Z,89.95
2019-03-17T21:55:21.837Z,70.10
2019-03-17T21:57:52.424Z,87.22
2019-03-17T22:00:23.300Z,92.70
2019-03-17T22:02:55.369Z,92.00
2019-03-17T22:05:26.305Z,85.10
2019-03-17T22:07:56.944Z,77.60
2019-03-17T22:10:27.765Z,80.35
2019-03-17T22:12:58.703Z,71.12
2019-03-17T22:15:29.437Z,69.75
2019-03-17T22:18:01.906Z,67.08
2019-03-17T22:20:32.551Z,67.42
2019-03-17T22:23:03.888Z,71.37
2019-03-17T22:25:34.210Z,74.90
2019-03-17T22:28:08.518Z,69.05
2019-03-17T22:30:37.518Z,78.90
2019-03-17T22:33:08.250Z,79.82
2019-03-17T22:35:39.088Z,96.57
2019-03-17T22:38:10.555Z,109.17
2019-03-17T22:40:42.556Z,79.27
2019-03-17T22:43:14.291Z,70.70
2019-03-17T22:45:45.394Z,75.92
2019-03-17T22:48:16.208Z,81.00
2019-03-17T22:50:49.215Z,102.02
2019-03-17T22:53:20.150Z,73.28
2019-03-17T22:55:51.192Z,73.55
2019-03-17T22:58:21.516Z,72.00
2019-03-17T23:00:52.554Z,69.65
2019-03-17T23:03:22.771Z,76.47
2019-03-17T23:05:53.195Z,76.22
2019-03-17T23:08:25.600Z,78.60
2019-03-17T23:10:56.610Z,74.82
2019-03-17T23:13:27.876Z,77.95
2019-03-17T23:15:57.977Z,83.52
2019-03-17T23:18:29.121Z,80.70
2019-03-17T23:20:59.949Z,90.65
2019-03-17T23:23:31.906Z,86.85
2019-03-17T23:26:02.337Z,101.42
2019-03-17T23:28:33.275Z,104.32
2019-03-17T23:31:03.788Z,93.50
2019-03-17T23:33:34.669Z,90.67
2019-03-17T23:36:05.228Z,85.87
2019-03-17T23:38:35.996Z,86.85
2019-03-17T23:41:06.685Z,99.40
2019-03-17T23:43:37.460Z,99.67
2019-03-17T23:46:08.190Z,97.95
2019-03-17T23:48:38.924Z,103.22
2019-03-17T23:51:10.375Z,101.27
2019-03-17T23:53:40.685Z,96.15
2019-03-17T23:56:12.462Z,100.42
2019-03-17T23:58:45.125Z,105.47
